createdAt,value
2018-10-09T00:01:06.163Z,97645.59
2018-10-09T00:03:35.491Z,97645.92
2018-10-09T00:06:04.748Z,97647.72
2018-10-09T00:08:34.615Z,97643.66
2018-10-09T00:11:03.934Z,97641.78
2018-10-09T00:13:33.263Z,97640.50
2018-10-09T00:16:02.538Z,97642.64
2018-10-09T00:18:31.879Z,97642.15
2018-10-09T00:21:01.247Z,97642.68
2018-10-09T00:23:30.533Z,97642.17
2018-10-09T00:25:59.922Z,97640.01
2018-10-09T00:28:29.175Z,97638.23
2018-10-09T00:30:58.476Z,97642.95
2018-10-09T00:33:27.757Z,97637.87
2018-10-09T00:35:57.076Z,97644.36
2018-10-09T00:38:26.364Z,97645.64
2018-10-09T00:40:55.647Z,97645.70
2018-10-09T00:43:25.288Z,97647.73
2018-10-09T00:45:54.536Z,97647.11
2018-10-09T00:48:23.820Z,97650.86
2018-10-09T00:50:53.319Z,97652.50
2018-10-09T00:53:22.607Z,97651.34
2018-10-09T00:55:51.868Z,97649.52
2018-10-09T00:58:21.137Z,97641.09
2018-10-09T01:00:50.433Z,97640.35
2018-10-09T01:03:19.746Z,97646.28
2018-10-09T01:05:49.027Z,97652.35
2018-10-09T01:08:18.279Z,97651.23
2018-10-09T01:10:47.561Z,97653.34
2018-10-09T01:13:16.836Z,97647.21
2018-10-09T01:15:46.110Z,97644.64
2018-10-09T01:18:15.364Z,97658.08
2018-10-09T01:20:44.633Z,97656.67
2018-10-09T01:23:13.933Z,97658.84
2018-10-09T01:25:43.289Z,97653.12
2018-10-09T01:28:12.544Z,97648.27
2018-10-09T01:30:41.811Z,97649.91
2018-10-09T01:33:11.033Z,97649.42
2018-10-09T01:35:40.329Z,97650.23
2018-10-09T01:38:09.586Z,97652.59
2018-10-09T01:40:38.804Z,97657.33
2018-10-09T01:43:08.039Z,97656.45
2018-10-09T01:45:37.284Z,97643.90
2018-10-09T01:48:06.569Z,97643.98
2018-10-09T01:50:35.809Z,97639.14
2018-10-09T01:53:05.035Z,97640.40
2018-10-09T01:55:34.286Z,97650.41
2018-10-09T01:58:03.627Z,97640.73
2018-10-09T02:00:32.933Z,97643.14
2018-10-09T02:03:02.152Z,97636.52
2018-10-09T02:05:31.363Z,97631.73
2018-10-09T02:08:00.707Z,97635.38
2018-10-09T02:10:30.155Z,97639.78
2018-10-09T02:12:59.398Z,97640.69
2018-10-09T02:15:28.624Z,97642.84
2018-10-09T02:17:57.893Z,97645.01
2018-10-09T02:20:27.119Z,97642.95
2018-10-09T02:22:56.343Z,97642.48
2018-10-09T02:25:25.596Z,97647.22
2018-10-09T02:27:54.866Z,97646.83
2018-10-09T02:30:24.108Z,97645.50
2018-10-09T02:32:53.348Z,97647.63
2018-10-09T02:35:22.941Z,97647.98
2018-10-09T02:37:52.215Z,97639.73
2018-10-09T02:40:21.518Z,97641.45
2018-10-09T02:42:50.726Z,97634.81
2018-10-09T02:45:20.016Z,97625.32
2018-10-09T02:47:49.253Z,97625.27
2018-10-09T02:50:18.453Z,97633.59
2018-10-09T02:52:47.663Z,97635.48
2018-10-09T02:55:16.888Z,97634.75
2018-10-09T02:57:46.105Z,97639.25
2018-10-09T03:00:15.294Z,97639.52
2018-10-09T03:02:44.494Z,97640.31
2018-10-09T03:05:13.715Z,97634.30
2018-10-09T03:07:42.919Z,97640.05
2018-10-09T03:10:12.136Z,97638.63
2018-10-09T03:12:41.378Z,97646.23
2018-10-09T03:15:10.688Z,97643.53
2018-10-09T03:17:39.927Z,97636.11
2018-10-09T03:20:09.131Z,97637.25
2018-10-09T03:22:38.351Z,97637.78
2018-10-09T03:25:07.596Z,97642.45
2018-10-09T03:27:36.815Z,97653.57
2018-10-09T03:30:08.300Z,97650.59
2018-10-09T03:32:37.853Z,97652.40
2018-10-09T03:35:07.144Z,97647.76
2018-10-09T03:37:36.454Z,97655.78
2018-10-09T03:40:05.835Z,97656.25
2018-10-09T03:42:35.060Z,97653.95
2018-10-09T03:45:04.352Z,97646.50
2018-10-09T03:47:33.574Z,97658.28
2018-10-09T03:50:02.819Z,97654.75
2018-10-09T03:52:32.085Z,97656.20
2018-10-09T03:55:01.299Z,97646.18
2018-10-09T03:57:30.636Z,97643.98
2018-10-09T03:59:59.872Z,97648.91
2018-10-09T04:02:29.112Z,97648.50
2018-10-09T04:04:58.355Z,97645.84
2018-10-09T04:07:27.622Z,97644.08
2018-10-09T04:09:56.859Z,97650.06
2018-10-09T04:12:26.072Z,97650.81
2018-10-09T04:14:55.325Z,97645.68
2018-10-09T04:17:24.604Z,97647.77
2018-10-09T04:19:53.865Z,97654.22
2018-10-09T04:22:23.704Z,97652.09
2018-10-09T04:24:52.930Z,97652.47
2018-10-09T04:27:22.184Z,97657.50
2018-10-09T04:29:51.431Z,97666.20
2018-10-09T04:32:20.687Z,97661.61
2018-10-09T04:34:50.014Z,97658.02
2018-10-09T04:37:19.280Z,97661.14
2018-10-09T04:39:48.530Z,97652.47
2018-10-09T04:42:17.767Z,97649.78
2018-10-09T04:44:47.009Z,97659.58
2018-10-09T04:47:16.219Z,97654.94
2018-10-09T04:49:45.523Z,97650.70
2018-10-09T04:52:14.760Z,97656.00
2018-10-09T04:54:44.008Z,97660.70
2018-10-09T04:57:13.259Z,97667.85
2018-10-09T04:59:42.544Z,97670.48
2018-10-09T05:02:11.801Z,97678.38
2018-10-09T05:04:41.080Z,97684.42
2018-10-09T05:07:10.320Z,97680.88
2018-10-09T05:09:39.560Z,97677.13
2018-10-09T05:12:08.802Z,97682.89
2018-10-09T05:14:38.029Z,97677.80
2018-10-09T05:17:07.588Z,97674.58
2018-10-09T05:19:36.833Z,97675.70
2018-10-09T05:22:06.206Z,97675.97
2018-10-09T05:24:35.471Z,97670.44
2018-10-09T05:27:04.736Z,97672.43
2018-10-09T05:29:33.951Z,97678.50
2018-10-09T05:32:03.219Z,97674.20
2018-10-09T05:34:32.543Z,97671.48
2018-10-09T05:37:01.911Z,97680.71
2018-10-09T05:39:31.149Z,97671.45
2018-10-09T05:42:00.396Z,97676.50
2018-10-09T05:44:29.646Z,97670.13
2018-10-09T05:46:58.864Z,97673.38
2018-10-09T05:49:28.103Z,97670.72
2018-10-09T05:51:57.331Z,97678.52
2018-10-09T05:54:26.588Z,97677.46
2018-10-09T05:56:55.841Z,97686.52
2018-10-09T05:59:25.067Z,97696.11
2018-10-09T06:01:54.292Z,97698.67
2018-10-09T06:04:23.539Z,97698.87
2018-10-09T06:06:52.755Z,97704.91
2018-10-09T06:09:22.058Z,97702.34
2018-10-09T06:11:51.344Z,97708.31
2018-10-09T06:14:20.567Z,97705.48
2018-10-09T06:16:49.788Z,97709.08
2018-10-09T06:19:18.999Z,97705.12
2018-10-09T06:21:48.226Z,97705.60
2018-10-09T06:24:17.589Z,97708.22
2018-10-09T06:26:46.820Z,97700.39
2018-10-09T06:29:16.059Z,97708.95
2018-10-09T06:31:45.289Z,97714.19
2018-10-09T06:34:14.558Z,97708.66
2018-10-09T06:36:43.789Z,97716.41
2018-10-09T06:39:13.019Z,97711.58
2018-10-09T06:41:42.871Z,97717.74
2018-10-09T06:44:12.231Z,97723.48
2018-10-09T06:46:41.460Z,97719.94
2018-10-09T06:49:10.728Z,97724.55
2018-10-09T06:51:39.976Z,97723.98
2018-10-09T06:54:09.280Z,97724.61
2018-10-09T06:56:38.431Z,97730.93
2018-10-09T06:59:07.698Z,97725.91
2018-10-09T07:01:36.956Z,97725.95
2018-10-09T07:04:06.197Z,97728.38
2018-10-09T07:06:35.439Z,97734.50
2018-10-09T07:09:07.854Z,97741.19
2018-10-09T07:11:37.245Z,97750.65
2018-10-09T07:14:06.451Z,97757.16
2018-10-09T07:16:35.877Z,97747.86
2018-10-09T07:19:05.120Z,97756.14
2018-10-09T07:21:34.353Z,97750.09
2018-10-09T07:24:03.597Z,97760.92
2018-10-09T07:26:32.851Z,97760.11
2018-10-09T07:29:02.169Z,97761.89
2018-10-09T07:31:31.424Z,97757.16
2018-10-09T07:34:00.696Z,97755.88
2018-10-09T07:36:29.934Z,97761.87
2018-10-09T07:38:59.176Z,97764.02
2018-10-09T07:41:28.384Z,97771.77
2018-10-09T07:43:58.145Z,97773.27
2018-10-09T07:46:29.661Z,97772.77
2018-10-09T07:48:59.901Z,97772.78
2018-10-09T07:51:29.103Z,97775.48
2018-10-09T07:53:58.491Z,97775.05
2018-10-09T07:56:27.735Z,97771.07
2018-10-09T07:58:56.957Z,97764.65
2018-10-09T08:01:26.196Z,97768.61
2018-10-09T08:03:55.410Z,97765.26
2018-10-09T08:06:24.639Z,97765.72
2018-10-09T08:08:54.078Z,97763.61
2018-10-09T08:11:23.371Z,97767.95
2018-10-09T08:13:52.584Z,97769.59
2018-10-09T08:16:21.843Z,97776.02
2018-10-09T08:18:51.039Z,97773.37
2018-10-09T08:21:20.367Z,97771.20
2018-10-09T08:23:49.572Z,97768.66
2018-10-09T08:26:18.788Z,97766.06
2018-10-09T08:28:48.023Z,97773.03
2018-10-09T08:31:17.309Z,97772.65
2018-10-09T08:33:46.527Z,97776.13
2018-10-09T08:36:18.191Z,97768.75
2018-10-09T08:38:48.731Z,97779.56
2018-10-09T08:41:18.030Z,97775.66
2018-10-09T08:43:47.224Z,97781.20
2018-10-09T08:46:16.483Z,97784.69
2018-10-09T08:48:45.698Z,97782.47
2018-10-09T08:51:14.936Z,97774.67
2018-10-09T08:53:44.186Z,97776.89
2018-10-09T08:56:13.412Z,97775.23
2018-10-09T08:58:42.645Z,97776.58
2018-10-09T09:01:11.871Z,97786.55
2018-10-09T09:03:41.223Z,97782.23
2018-10-09T09:06:10.403Z,97782.69
2018-10-09T09:08:39.752Z,97777.97
2018-10-09T09:11:08.972Z,97779.69
2018-10-09T09:13:38.202Z,97778.77
2018-10-09T09:16:07.758Z,97778.80
2018-10-09T09:18:37.079Z,97780.55
2018-10-09T09:21:06.617Z,97777.56
2018-10-09T09:23:35.831Z,97775.42
2018-10-09T09:26:05.090Z,97777.22
2018-10-09T09:28:34.309Z,97779.33
2018-10-09T09:31:03.542Z,97781.49
2018-10-09T09:33:32.790Z,97784.52
2018-10-09T09:36:02.039Z,97785.44
2018-10-09T09:38:31.283Z,97778.97
2018-10-09T09:41:00.509Z,97778.52
2018-10-09T09:43:29.777Z,97773.76
2018-10-09T09:45:59.052Z,97778.94
2018-10-09T09:48:28.268Z,97785.88
2018-10-09T09:50:57.475Z,97775.03
2018-10-09T09:53:26.755Z,97777.20
2018-10-09T09:55:55.968Z,97774.61
2018-10-09T09:58:25.283Z,97772.88
2018-10-09T10:00:58.323Z,97773.72
2018-10-09T10:03:28.136Z,97773.70
2018-10-09T10:05:57.347Z,97771.98
2018-10-09T10:08:26.632Z,97771.12
2018-10-09T10:10:55.869Z,97769.31
2018-10-09T10:13:25.191Z,97765.81
2018-10-09T10:15:54.488Z,97766.67
2018-10-09T10:18:23.680Z,97767.45
2018-10-09T10:20:52.908Z,97767.85
2018-10-09T10:23:22.183Z,97765.67
2018-10-09T10:25:51.425Z,97763.92
2018-10-09T10:28:20.674Z,97765.23
2018-10-09T10:30:49.929Z,97762.64
2018-10-09T10:33:19.284Z,97758.69
2018-10-09T10:35:48.568Z,97751.56
2018-10-09T10:38:17.776Z,97749.75
2018-10-09T10:40:46.985Z,97749.33
2018-10-09T10:43:16.239Z,97744.40
2018-10-09T10:45:45.470Z,97743.50
2018-10-09T10:48:14.738Z,97739.59
2018-10-09T10:50:43.935Z,97735.59
2018-10-09T10:53:13.207Z,97728.34
2018-10-09T10:55:42.439Z,97727.03
2018-10-09T10:58:11.692Z,97727.96
2018-10-09T11:00:41.007Z,97726.23
2018-10-09T11:03:10.256Z,97718.75
2018-10-09T11:05:39.527Z,97719.12
2018-10-09T11:08:08.796Z,97725.13
2018-10-09T11:10:38.019Z,97722.45
2018-10-09T11:13:07.304Z,97727.84
2018-10-09T11:15:36.525Z,97736.84
2018-10-09T11:18:05.796Z,97731.14
2018-10-09T11:20:35.034Z,97734.88
2018-10-09T11:23:04.347Z,97726.44
2018-10-09T11:25:33.557Z,97719.95
2018-10-09T11:28:02.783Z,97720.44
2018-10-09T11:30:32.016Z,97716.50
2018-10-09T11:33:01.240Z,97713.72
2018-10-09T11:35:30.547Z,97717.06
2018-10-09T11:37:59.785Z,97712.91
2018-10-09T11:40:29.027Z,97705.23
2018-10-09T11:42:58.245Z,97705.72
2018-10-09T11:45:27.465Z,97714.95
2018-10-09T11:47:56.696Z,97704.29
2018-10-09T11:50:25.932Z,97706.57
2018-10-09T11:52:55.156Z,97698.05
2018-10-09T11:55:24.435Z,97703.14
2018-10-09T11:57:54.054Z,97695.62
2018-10-09T12:00:23.377Z,97697.19
2018-10-09T12:02:52.649Z,97694.33
2018-10-09T12:05:21.879Z,97698.33
2018-10-09T12:07:51.135Z,97688.12
2018-10-09T12:10:20.391Z,97684.51
2018-10-09T12:12:49.645Z,97687.53
2018-10-09T12:15:18.878Z,97680.08
2018-10-09T12:17:48.114Z,97679.91
2018-10-09T12:20:17.395Z,97681.94
2018-10-09T12:22:46.663Z,97679.06
2018-10-09T12:25:15.977Z,97677.41
2018-10-09T12:27:45.191Z,97677.30
2018-10-09T12:30:14.420Z,97676.02
2018-10-09T12:32:43.743Z,97674.07
2018-10-09T12:35:12.944Z,97670.73
2018-10-09T12:37:42.180Z,97670.09
2018-10-09T12:40:11.411Z,97663.59
2018-10-09T12:42:40.611Z,97661.30
2018-10-09T12:45:09.877Z,97655.00
2018-10-09T12:47:39.512Z,97654.51
2018-10-09T12:50:08.765Z,97651.32
2018-10-09T12:52:38.369Z,97651.73
2018-10-09T12:55:08.177Z,97646.14
2018-10-09T12:57:37.388Z,97648.50
2018-10-09T13:00:06.609Z,97636.78
2018-10-09T13:02:35.801Z,97637.87
2018-10-09T13:05:05.035Z,97641.16
2018-10-09T13:07:34.298Z,97626.12
2018-10-09T13:10:03.528Z,97625.59
2018-10-09T13:12:32.741Z,97628.15
2018-10-09T13:15:01.964Z,97628.56
2018-10-09T13:17:31.253Z,97632.13
2018-10-09T13:20:00.415Z,97623.52
2018-10-09T13:22:29.956Z,97621.69
2018-10-09T13:24:58.856Z,97622.11
2018-10-09T13:27:28.088Z,97628.27
2018-10-09T13:29:57.303Z,97631.41
2018-10-09T13:32:26.567Z,97622.39
2018-10-09T13:34:55.780Z,97619.67
2018-10-09T13:37:24.996Z,97618.98
2018-10-09T13:39:54.206Z,97612.95
2018-10-09T13:42:23.430Z,97606.38
2018-10-09T13:44:52.637Z,97620.80
2018-10-09T13:47:21.885Z,97615.91
2018-10-09T13:49:51.190Z,97615.22
2018-10-09T13:52:20.433Z,97613.91
2018-10-09T13:54:49.660Z,97611.42
2018-10-09T13:57:18.941Z,97604.45
2018-10-09T13:59:48.090Z,97600.22
2018-10-09T14:02:18.184Z,97600.08
2018-10-09T14:04:47.475Z,97603.66
2018-10-09T14:07:16.721Z,97601.30
2018-10-09T14:09:45.974Z,97593.77
2018-10-09T14:12:15.190Z,97599.17
2018-10-09T14:14:44.507Z,97596.69
2018-10-09T14:17:13.720Z,97593.27
2018-10-09T14:19:42.990Z,97591.85
2018-10-09T14:22:12.282Z,97596.33
2018-10-09T14:24:41.579Z,97598.81
2018-10-09T14:27:10.805Z,97592.49
2018-10-09T14:29:40.030Z,97594.62
2018-10-09T14:32:09.227Z,97597.69
2018-10-09T14:34:38.486Z,97594.98
2018-10-09T14:37:08.174Z,97602.19
2018-10-09T14:39:37.369Z,97602.02
2018-10-09T14:42:06.600Z,97597.09
2018-10-09T14:44:35.804Z,97587.19
2018-10-09T14:47:05.013Z,97591.27
2018-10-09T14:49:34.359Z,97594.33
2018-10-09T14:52:03.607Z,97586.27
2018-10-09T14:54:32.821Z,97582.52
2018-10-09T14:57:02.027Z,97588.76
2018-10-09T14:59:31.276Z,97583.77
2018-10-09T15:02:00.528Z,97591.34
2018-10-09T15:04:29.788Z,97589.59
2018-10-09T15:06:59.071Z,97591.41
2018-10-09T15:09:28.330Z,97588.33
2018-10-09T15:11:57.532Z,97588.29
2018-10-09T15:14:26.749Z,97586.75
2018-10-09T15:16:55.974Z,97584.09
2018-10-09T15:19:25.197Z,97585.91
2018-10-09T15:21:54.521Z,97583.34
2018-10-09T15:24:23.763Z,97580.29
2018-10-09T15:26:52.983Z,97579.89
2018-10-09T15:29:22.181Z,97583.19
2018-10-09T15:31:51.379Z,97576.51
2018-10-09T15:34:20.618Z,97569.48
2018-10-09T15:36:49.851Z,97576.50
2018-10-09T15:39:19.107Z,97583.34
2018-10-09T15:41:48.318Z,97587.53
2018-10-09T15:44:17.594Z,97583.71
2018-10-09T15:46:46.933Z,97584.90
2018-10-09T15:49:16.172Z,97579.31
2018-10-09T15:51:45.429Z,97572.58
2018-10-09T15:54:14.707Z,97579.97
2018-10-09T15:56:43.957Z,97575.97
2018-10-09T15:59:13.178Z,97574.55
2018-10-09T16:01:42.429Z,97574.06
2018-10-09T16:04:11.769Z,97582.22
2018-10-09T16:06:41.050Z,97589.94
2018-10-09T16:09:11.194Z,97596.72
2018-10-09T16:11:40.564Z,97587.44
2018-10-09T16:14:09.768Z,97589.80
2018-10-09T16:16:38.968Z,97589.50
2018-10-09T16:19:08.483Z,97587.38
2018-10-09T16:21:37.892Z,97583.55
2018-10-09T16:24:07.160Z,97590.55
2018-10-09T16:26:36.389Z,97586.28
2018-10-09T16:29:05.594Z,97587.17
2018-10-09T16:31:34.900Z,97590.67
2018-10-09T16:34:04.147Z,97600.17
2018-10-09T16:36:33.375Z,97600.16
2018-10-09T16:39:02.651Z,97600.13
2018-10-09T16:41:31.864Z,97600.55
2018-10-09T16:44:01.119Z,97601.39
2018-10-09T16:46:30.528Z,97600.92
2018-10-09T16:48:59.840Z,97607.31
2018-10-09T16:51:29.064Z,97611.16
2018-10-09T16:53:58.356Z,97606.39
2018-10-09T16:56:27.569Z,97605.95
2018-10-09T16:58:57.152Z,97608.96
2018-10-09T17:01:26.550Z,97610.22
2018-10-09T17:03:56.124Z,97613.19
2018-10-09T17:06:25.419Z,97614.01
2018-10-09T17:08:55.291Z,97620.00
2018-10-09T17:11:24.598Z,97617.84
2018-10-09T17:13:53.968Z,97620.83
2018-10-09T17:16:23.345Z,97619.53
2018-10-09T17:18:52.704Z,97624.26
2018-10-09T17:21:22.094Z,97621.22
2018-10-09T17:23:51.312Z,97619.89
2018-10-09T17:26:20.527Z,97614.30
2018-10-09T17:28:50.137Z,97619.92
2018-10-09T17:31:19.485Z,97625.07
2018-10-09T17:33:48.937Z,97625.00
2018-10-09T17:36:18.264Z,97627.17
2018-10-09T17:38:47.603Z,97623.32
2018-10-09T17:41:17.195Z,97624.65
2018-10-09T17:43:46.434Z,97629.79
2018-10-09T17:46:15.781Z,97622.03
2018-10-09T17:48:45.079Z,97629.77
2018-10-09T17:51:14.228Z,97626.39
2018-10-09T17:53:43.452Z,97625.13
2018-10-09T17:56:12.729Z,97624.28
2018-10-09T17:58:41.980Z,97620.85
2018-10-09T18:01:11.313Z,97626.00
2018-10-09T18:03:40.570Z,97625.55
2018-10-09T18:06:10.045Z,97625.91
2018-10-09T18:08:39.768Z,97631.54
2018-10-09T18:11:09.580Z,97623.29
2018-10-09T18:13:38.792Z,97624.97
2018-10-09T18:16:08.349Z,97630.60
2018-10-09T18:18:37.648Z,97630.53
2018-10-09T18:21:06.960Z,97629.23
2018-10-09T18:23:36.234Z,97624.87
2018-10-09T18:26:05.476Z,97624.87
2018-10-09T18:28:34.722Z,97627.45
2018-10-09T18:31:04.000Z,97630.88
2018-10-09T18:33:33.248Z,97630.08
2018-10-09T18:36:02.492Z,97626.58
2018-10-09T18:38:31.719Z,97630.50
2018-10-09T18:41:01.053Z,97621.80
2018-10-09T18:43:30.215Z,97626.97
2018-10-09T18:45:59.511Z,97629.48
2018-10-09T18:48:28.763Z,97629.02
2018-10-09T18:50:57.993Z,97627.23
2018-10-09T18:53:27.234Z,97629.74
2018-10-09T18:55:56.487Z,97630.16
2018-10-09T18:58:25.760Z,97625.36
2018-10-09T19:00:55.111Z,97622.27
2018-10-09T19:03:24.356Z,97627.52
2018-10-09T19:05:53.691Z,97623.19
2018-10-09T19:08:22.952Z,97622.78
2018-10-09T19:10:52.256Z,97624.06
2018-10-09T19:13:21.451Z,97627.07
2018-10-09T19:15:50.812Z,97626.65
2018-10-09T19:18:20.060Z,97632.66
2018-10-09T19:20:49.376Z,97637.33
2018-10-09T19:23:18.618Z,97642.44
2018-10-09T19:25:47.900Z,97641.94
2018-10-09T19:28:17.183Z,97639.72
2018-10-09T19:30:46.444Z,97643.55
2018-10-09T19:33:15.857Z,97640.50
2018-10-09T19:35:45.141Z,97643.54
2018-10-09T19:38:14.387Z,97647.00
2018-10-09T19:40:43.625Z,97647.94
2018-10-09T19:43:12.903Z,97648.40
2018-10-09T19:45:42.133Z,97647.47
2018-10-09T19:48:11.360Z,97651.34
2018-10-09T19:50:40.640Z,97649.14
2018-10-09T19:53:09.904Z,97649.14
2018-10-09T19:55:39.648Z,97649.19
2018-10-09T19:58:08.887Z,97647.43
2018-10-09T20:00:38.149Z,97648.31
2018-10-09T20:03:07.528Z,97651.34
2018-10-09T20:05:36.762Z,97649.23
2018-10-09T20:08:06.232Z,97650.66
2018-10-09T20:10:35.508Z,97654.58
2018-10-09T20:13:04.834Z,97657.59
2018-10-09T20:15:34.134Z,97657.12
2018-10-09T20:18:03.345Z,97657.91
2018-10-09T20:20:32.584Z,97659.16
2018-10-09T20:23:01.842Z,97658.64
2018-10-09T20:25:31.067Z,97656.89
2018-10-09T20:28:00.301Z,97653.52
2018-10-09T20:30:29.531Z,97654.97
2018-10-09T20:32:58.783Z,97664.98
2018-10-09T20:35:28.004Z,97668.48
2018-10-09T20:37:57.229Z,97661.98
2018-10-09T20:40:26.458Z,97672.73
2018-10-09T20:42:55.691Z,97666.55
2018-10-09T20:45:24.907Z,97671.93
2018-10-09T20:47:54.201Z,97675.58
2018-10-09T20:50:23.396Z,97671.53
2018-10-09T20:52:52.665Z,97676.95
2018-10-09T20:55:21.885Z,97676.73
2018-10-09T20:57:51.280Z,97676.55
2018-10-09T21:00:20.507Z,97670.90
2018-10-09T21:02:49.776Z,97676.42
2018-10-09T21:05:19.028Z,97673.91
2018-10-09T21:07:48.211Z,97682.45
2018-10-09T21:10:17.529Z,97682.53
2018-10-09T21:12:46.772Z,97682.00
2018-10-09T21:15:16.049Z,97680.65
2018-10-09T21:18:02.206Z,97676.30
2018-10-09T21:20:31.569Z,97674.52
2018-10-09T21:23:00.842Z,97681.88
2018-10-09T21:25:30.086Z,97678.45
2018-10-09T21:27:59.356Z,97678.38
2018-10-09T21:30:28.572Z,97680.02
2018-10-09T21:32:57.879Z,97679.77
2018-10-09T21:35:27.105Z,97683.73
2018-10-09T21:37:56.339Z,97687.77
2018-10-09T21:40:25.561Z,97685.42
2018-10-09T21:42:54.747Z,97679.38
2018-10-09T21:45:23.972Z,97681.44
2018-10-09T21:48:04.959Z,97683.53
2018-10-09T21:50:34.214Z,97686.47
2018-10-09T21:53:03.428Z,97682.58
2018-10-09T21:55:32.628Z,97686.47
2018-10-09T21:58:01.897Z,97683.89
2018-10-09T22:00:35.205Z,97681.38
2018-10-09T22:03:04.532Z,97676.31
2018-10-09T22:05:33.823Z,97679.59
2018-10-09T22:08:03.029Z,97679.02
2018-10-09T22:10:32.239Z,97673.62
2018-10-09T22:13:01.508Z,97677.00
2018-10-09T22:15:30.706Z,97671.34
2018-10-09T22:17:59.927Z,97666.91
2018-10-09T22:20:29.160Z,97662.95
2018-10-09T22:22:58.388Z,97669.34
2018-10-09T22:25:27.580Z,97664.85
2018-10-09T22:27:56.816Z,97666.43
2018-10-09T22:30:26.024Z,97668.58
2018-10-09T22:32:55.279Z,97660.53
2018-10-09T22:35:24.505Z,97666.58
2018-10-09T22:37:53.714Z,97662.20
2018-10-09T22:40:22.961Z,97661.14
2018-10-09T22:42:52.159Z,97658.73
2018-10-09T22:45:21.438Z,97653.41
2018-10-09T22:47:50.616Z,97647.95
2018-10-09T22:50:19.840Z,97651.36
2018-10-09T22:52:49.042Z,97649.86
2018-10-09T22:55:18.270Z,97649.19
2018-10-09T22:57:47.519Z,97649.07
2018-10-09T23:00:16.742Z,97649.97
2018-10-09T23:02:45.973Z,97648.38
2018-10-09T23:05:15.230Z,97650.19
2018-10-09T23:07:44.427Z,97645.55
2018-10-09T23:10:13.633Z,97639.61
2018-10-09T23:12:42.877Z,97644.44
2018-10-09T23:15:12.147Z,97641.87
2018-10-09T23:17:41.341Z,97640.07
2018-10-09T23:20:10.618Z,97636.98
2018-10-09T23:22:39.842Z,97631.77
2018-10-09T23:25:09.046Z,97630.07
2018-10-09T23:27:38.380Z,97626.50
2018-10-09T23:30:08.308Z,97628.29
2018-10-09T23:32:37.842Z,97624.24
2018-10-09T23:35:07.168Z,97620.70
2018-10-09T23:37:36.370Z,97618.61
2018-10-09T23:40:05.590Z,97624.17
2018-10-09T23:42:34.835Z,97620.31
2018-10-09T23:45:04.071Z,97613.97
2018-10-09T23:47:33.286Z,97617.36
2018-10-09T23:50:02.492Z,97608.31
2018-10-09T23:52:31.712Z,97608.31
2018-10-09T23:55:00.958Z,97609.30
2018-10-09T23:57:30.217Z,97602.94
2018-10-09T23:59:59.425Z,97609.33
